sensor_id;sensor_type;location;lat;lon;timestamp;P1;durP1;ratioP1;P2;durP2;ratioP2
2061;SDS011;11070;51.336;12.340;2023-07-24T00:01:09;2.77;;;2.57;;
2061;SDS011;11070;51.336;12.340;2023-07-24T00:03:34;2.70;;;2.20;;
2061;SDS011;11070;51.336;12.340;2023-07-24T00:06:00;2.40;;;2.30;;
2061;SDS011;11070;51.336;12.340;2023-07-24T00:08:26;2.43;;;2.23;;
2061;SDS011;11070;51.336;12.340;2023-07-24T00:10:51;2.60;;;2.37;;
2061;SDS011;11070;51.336;12.340;2023-07-24T00:13:17;3.80;;;2.30;;
2061;SDS011;11070;51.336;12.340;2023-07-24T00:15:43;3.73;;;2.80;;
2061;SDS011;11070;51.336;12.340;2023-07-24T00:18:08;2.83;;;2.53;;
2061;SDS011;11070;51.336;12.340;2023-07-24T00:20:34;2.40;;;2.20;;
2061;SDS011;11070;51.336;12.340;2023-07-24T00:23:00;2.67;;;2.47;;
2061;SDS011;11070;51.336;12.340;2023-07-24T00:25:25;3.07;;;2.87;;
2061;SDS011;11070;51.336;12.340;2023-07-24T00:27:51;2.60;;;2.50;;
2061;SDS011;11070;51.336;12.340;2023-07-24T00:30:17;2.63;;;2.43;;
2061;SDS011;11070;51.336;12.340;2023-07-24T00:32:42;2.70;;;2.50;;
2061;SDS011;11070;51.336;12.340;2023-07-24T00:35:08;3.10;;;2.90;;
2061;SDS011;11070;51.336;12.340;2023-07-24T00:37:34;2.63;;;2.43;;
2061;SDS011;11070;51.336;12.340;2023-07-24T00:39:59;2.87;;;2.67;;
2061;SDS011;11070;51.336;12.340;2023-07-24T00:42:25;4.53;;;3.20;;
2061;SDS011;11070;51.336;12.340;2023-07-24T00:44:51;3.00;;;2.53;;
2061;SDS011;11070;51.336;12.340;2023-07-24T00:47:17;2.70;;;2.50;;
2061;SDS011;11070;51.336;12.340;2023-07-24T00:49:43;2.95;;;2.60;;
2061;SDS011;11070;51.336;12.340;2023-07-24T00:52:09;3.15;;;2.20;;
2061;SDS011;11070;51.336;12.340;2023-07-24T00:54:36;2.78;;;2.58;;
2061;SDS011;11070;51.336;12.340;2023-07-24T00:57:03;2.78;;;2.58;;
2061;SDS011;11070;51.336;12.340;2023-07-24T00:59:30;3.00;;;2.50;;
2061;SDS011;11070;51.336;12.340;2023-07-24T01:01:56;2.65;;;2.25;;
2061;SDS011;11070;51.336;12.340;2023-07-24T01:04:22;2.70;;;2.50;;
2061;SDS011;11070;51.336;12.340;2023-07-24T01:06:48;3.50;;;2.57;;
2061;SDS011;11070;51.336;12.340;2023-07-24T01:09:14;2.10;;;2.00;;
2061;SDS011;11070;51.336;12.340;2023-07-24T01:11:44;2.70;;;2.27;;
2061;SDS011;11070;51.336;12.340;2023-07-24T01:16:48;2.55;;;2.30;;
2061;SDS011;11070;51.336;12.340;2023-07-24T01:22:14;3.67;;;2.38;;
2061;SDS011;11070;51.336;12.340;2023-07-24T01:27:31;1.98;;;1.88;;
2061;SDS011;11070;51.336;12.340;2023-07-24T01:29:57;3.35;;;2.17;;
2061;SDS011;11070;51.336;12.340;2023-07-24T01:32:23;4.43;;;2.40;;
2061;SDS011;11070;51.336;12.340;2023-07-24T01:34:50;2.35;;;2.17;;
2061;SDS011;11070;51.336;12.340;2023-07-24T01:37:17;2.50;;;2.30;;
2061;SDS011;11070;51.336;12.340;2023-07-24T01:39:45;2.97;;;2.78;;
2061;SDS011;11070;51.336;12.340;2023-07-24T01:42:11;2.72;;;2.50;;
2061;SDS011;11070;51.336;12.340;2023-07-24T01:44:38;3.17;;;2.88;;
2061;SDS011;11070;51.336;12.340;2023-07-24T01:47:03;3.13;;;2.93;;
2061;SDS011;11070;51.336;12.340;2023-07-24T01:49:29;5.40;;;2.40;;
2061;SDS011;11070;51.336;12.340;2023-07-24T01:51:55;2.80;;;2.60;;
2061;SDS011;11070;51.336;12.340;2023-07-24T01:54:22;4.28;;;3.10;;
2061;SDS011;11070;51.336;12.340;2023-07-24T01:56:48;4.80;;;3.03;;
2061;SDS011;11070;51.336;12.340;2023-07-24T01:59:13;4.23;;;3.03;;
2061;SDS011;11070;51.336;12.340;2023-07-24T02:01:39;4.43;;;3.07;;
2061;SDS011;11070;51.336;12.340;2023-07-24T02:04:05;4.77;;;2.97;;
2061;SDS011;11070;51.336;12.340;2023-07-24T02:06:30;4.83;;;3.30;;
2061;SDS011;11070;51.336;12.340;2023-07-24T02:08:56;3.47;;;3.17;;
2061;SDS011;11070;51.336;12.340;2023-07-24T02:11:21;5.23;;;3.30;;
2061;SDS011;11070;51.336;12.340;2023-07-24T02:13:47;5.67;;;3.33;;
2061;SDS011;11070;51.336;12.340;2023-07-24T02:16:13;7.87;;;3.67;;
2061;SDS011;11070;51.336;12.340;2023-07-24T02:18:40;3.90;;;3.47;;
2061;SDS011;11070;51.336;12.340;2023-07-24T02:21:07;5.15;;;2.95;;
2061;SDS011;11070;51.336;12.340;2023-07-24T02:23:32;6.23;;;2.87;;
2061;SDS011;11070;51.336;12.340;2023-07-24T02:25:58;4.37;;;3.93;;
2061;SDS011;11070;51.336;12.340;2023-07-24T02:28:24;3.80;;;3.50;;
2061;SDS011;11070;51.336;12.340;2023-07-24T02:30:49;4.97;;;3.63;;
2061;SDS011;11070;51.336;12.340;2023-07-24T02:33:17;4.85;;;3.75;;
2061;SDS011;11070;51.336;12.340;2023-07-24T02:35:42;7.13;;;4.37;;
2061;SDS011;11070;51.336;12.340;2023-07-24T02:38:08;5.10;;;3.90;;
2061;SDS011;11070;51.336;12.340;2023-07-24T02:40:34;4.43;;;4.03;;
2061;SDS011;11070;51.336;12.340;2023-07-24T02:43:01;5.13;;;4.20;;
2061;SDS011;11070;51.336;12.340;2023-07-24T02:45:26;5.43;;;3.73;;
2061;SDS011;11070;51.336;12.340;2023-07-24T02:47:52;6.90;;;4.07;;
2061;SDS011;11070;51.336;12.340;2023-07-24T02:50:17;4.30;;;3.90;;
2061;SDS011;11070;51.336;12.340;2023-07-24T02:52:43;5.00;;;3.97;;
2061;SDS011;11070;51.336;12.340;2023-07-24T02:55:09;8.23;;;3.80;;
2061;SDS011;11070;51.336;12.340;2023-07-24T02:57:34;4.67;;;4.20;;
2061;SDS011;11070;51.336;12.340;2023-07-24T03:00:00;6.30;;;3.87;;
2061;SDS011;11070;51.336;12.340;2023-07-24T03:02:26;4.13;;;3.83;;
2061;SDS011;11070;51.336;12.340;2023-07-24T03:04:52;5.87;;;4.37;;
2061;SDS011;11070;51.336;12.340;2023-07-24T03:07:17;5.80;;;4.60;;
2061;SDS011;11070;51.336;12.340;2023-07-24T03:09:43;4.80;;;4.20;;
2061;SDS011;11070;51.336;12.340;2023-07-24T03:12:08;4.30;;;3.90;;
2061;SDS011;11070;51.336;12.340;2023-07-24T03:14:34;5.33;;;4.23;;
2061;SDS011;11070;51.336;12.340;2023-07-24T03:17:00;4.70;;;4.10;;
2061;SDS011;11070;51.336;12.340;2023-07-24T03:19:26;5.37;;;4.10;;
2061;SDS011;11070;51.336;12.340;2023-07-24T03:21:51;4.30;;;3.90;;
2061;SDS011;11070;51.336;12.340;2023-07-24T03:24:17;8.00;;;4.43;;
2061;SDS011;11070;51.336;12.340;2023-07-24T03:26:43;5.00;;;4.50;;
2061;SDS011;11070;51.336;12.340;2023-07-24T03:29:08;7.47;;;4.77;;
2061;SDS011;11070;51.336;12.340;2023-07-24T03:31:34;5.27;;;4.30;;
2061;SDS011;11070;51.336;12.340;2023-07-24T03:33:59;6.20;;;4.13;;
2061;SDS011;11070;51.336;12.340;2023-07-24T03:36:25;4.83;;;4.33;;
2061;SDS011;11070;51.336;12.340;2023-07-24T03:38:51;5.00;;;4.50;;
2061;SDS011;11070;51.336;12.340;2023-07-24T03:41:16;4.97;;;4.47;;
2061;SDS011;11070;51.336;12.340;2023-07-24T03:43:43;4.63;;;4.15;;
2061;SDS011;11070;51.336;12.340;2023-07-24T03:46:09;5.00;;;4.60;;
2061;SDS011;11070;51.336;12.340;2023-07-24T03:48:34;4.30;;;3.90;;
2061;SDS011;11070;51.336;12.340;2023-07-24T03:51:01;5.82;;;4.18;;
2061;SDS011;11070;51.336;12.340;2023-07-24T03:53:27;4.40;;;4.00;;
2061;SDS011;11070;51.336;12.340;2023-07-24T03:55:53;5.13;;;3.80;;
2061;SDS011;11070;51.336;12.340;2023-07-24T03:58:19;4.30;;;4.00;;
2061;SDS011;11070;51.336;12.340;2023-07-24T04:00:45;4.60;;;4.20;;
2061;SDS011;11070;51.336;12.340;2023-07-24T04:03:11;4.05;;;3.75;;
2061;SDS011;11070;51.336;12.340;2023-07-24T04:05:37;8.83;;;4.70;;
2061;SDS011;11070;51.336;12.340;2023-07-24T04:08:02;3.93;;;3.63;;
2061;SDS011;11070;51.336;12.340;2023-07-24T04:10:28;4.23;;;3.83;;
2061;SDS011;11070;51.336;12.340;2023-07-24T04:12:55;6.95;;;4.03;;
2061;SDS011;11070;51.336;12.340;2023-07-24T04:15:22;4.20;;;3.80;;
2061;SDS011;11070;51.336;12.340;2023-07-24T04:17:48;5.05;;;4.43;;
2061;SDS011;11070;51.336;12.340;2023-07-24T04:20:14;4.33;;;4.00;;
2061;SDS011;11070;51.336;12.340;2023-07-24T04:22:39;4.90;;;4.23;;
2061;SDS011;11070;51.336;12.340;2023-07-24T04:25:05;6.10;;;3.83;;
2061;SDS011;11070;51.336;12.340;2023-07-24T04:27:31;5.00;;;3.90;;
2061;SDS011;11070;51.336;12.340;2023-07-24T04:29:57;4.67;;;4.10;;
2061;SDS011;11070;51.336;12.340;2023-07-24T04:32:22;3.97;;;3.67;;
2061;SDS011;11070;51.336;12.340;2023-07-24T04:34:48;4.40;;;4.10;;
2061;SDS011;11070;51.336;12.340;2023-07-24T04:37:13;4.50;;;4.10;;
2061;SDS011;11070;51.336;12.340;2023-07-24T04:39:39;4.80;;;4.40;;
2061;SDS011;11070;51.336;12.340;2023-07-24T04:42:05;4.77;;;3.93;;
2061;SDS011;11070;51.336;12.340;2023-07-24T04:44:31;4.77;;;4.37;;
2061;SDS011;11070;51.336;12.340;2023-07-24T04:46:59;6.90;;;4.10;;
2061;SDS011;11070;51.336;12.340;2023-07-24T04:49:28;5.80;;;4.20;;
2061;SDS011;11070;51.336;12.340;2023-07-24T04:51:54;4.03;;;3.67;;
2061;SDS011;11070;51.336;12.340;2023-07-24T04:54:20;5.53;;;4.20;;
2061;SDS011;11070;51.336;12.340;2023-07-24T04:56:46;4.33;;;4.03;;
2061;SDS011;11070;51.336;12.340;2023-07-24T04:59:11;5.03;;;4.30;;
2061;SDS011;11070;51.336;12.340;2023-07-24T05:01:37;5.33;;;4.67;;
2061;SDS011;11070;51.336;12.340;2023-07-24T05:04:03;7.70;;;4.77;;
2061;SDS011;11070;51.336;12.340;2023-07-24T05:06:28;6.50;;;4.70;;
2061;SDS011;11070;51.336;12.340;2023-07-24T05:08:54;5.40;;;4.90;;
2061;SDS011;11070;51.336;12.340;2023-07-24T05:11:20;5.60;;;5.00;;
2061;SDS011;11070;51.336;12.340;2023-07-24T05:13:45;4.77;;;4.37;;
2061;SDS011;11070;51.336;12.340;2023-07-24T05:16:11;6.17;;;4.60;;
2061;SDS011;11070;51.336;12.340;2023-07-24T05:18:37;6.80;;;4.60;;
2061;SDS011;11070;51.336;12.340;2023-07-24T05:21:02;4.40;;;4.00;;
2061;SDS011;11070;51.336;12.340;2023-07-24T05:23:28;4.40;;;4.00;;
2061;SDS011;11070;51.336;12.340;2023-07-24T05:25:57;5.83;;;4.20;;
2061;SDS011;11070;51.336;12.340;2023-07-24T05:28:27;5.90;;;4.67;;
2061;SDS011;11070;51.336;12.340;2023-07-24T05:30:53;4.73;;;4.33;;
2061;SDS011;11070;51.336;12.340;2023-07-24T05:33:19;4.50;;;4.10;;
2061;SDS011;11070;51.336;12.340;2023-07-24T05:35:45;5.13;;;3.97;;
2061;SDS011;11070;51.336;12.340;2023-07-24T05:38:10;5.73;;;5.10;;
2061;SDS011;11070;51.336;12.340;2023-07-24T05:40:36;4.87;;;4.47;;
2061;SDS011;11070;51.336;12.340;2023-07-24T05:43:02;4.87;;;4.37;;
2061;SDS011;11070;51.336;12.340;2023-07-24T05:45:29;5.73;;;4.70;;
2061;SDS011;11070;51.336;12.340;2023-07-24T05:47:54;4.67;;;4.27;;
2061;SDS011;11070;51.336;12.340;2023-07-24T05:50:20;5.67;;;4.40;;
2061;SDS011;11070;51.336;12.340;2023-07-24T05:52:46;4.87;;;4.47;;
2061;SDS011;11070;51.336;12.340;2023-07-24T05:55:11;8.23;;;4.90;;
2061;SDS011;11070;51.336;12.340;2023-07-24T05:57:37;4.70;;;4.30;;
2061;SDS011;11070;51.336;12.340;2023-07-24T06:00:03;5.37;;;4.10;;
2061;SDS011;11070;51.336;12.340;2023-07-24T06:02:30;9.43;;;4.80;;
2061;SDS011;11070;51.336;12.340;2023-07-24T06:04:55;4.63;;;4.30;;
2061;SDS011;11070;51.336;12.340;2023-07-24T06:07:21;4.17;;;3.87;;
2061;SDS011;11070;51.336;12.340;2023-07-24T06:09:47;4.77;;;4.33;;
2061;SDS011;11070;51.336;12.340;2023-07-24T06:12:12;5.03;;;4.63;;
2061;SDS011;11070;51.336;12.340;2023-07-24T06:14:38;5.33;;;4.80;;
2061;SDS011;11070;51.336;12.340;2023-07-24T06:17:04;4.40;;;4.00;;
2061;SDS011;11070;51.336;12.340;2023-07-24T06:19:30;4.87;;;4.40;;
2061;SDS011;11070;51.336;12.340;2023-07-24T06:21:55;4.63;;;4.23;;
2061;SDS011;11070;51.336;12.340;2023-07-24T06:24:21;5.07;;;4.57;;
2061;SDS011;11070;51.336;12.340;2023-07-24T06:26:48;4.10;;;3.80;;
2061;SDS011;11070;51.336;12.340;2023-07-24T06:29:15;4.83;;;4.43;;
2061;SDS011;11070;51.336;12.340;2023-07-24T06:31:41;4.90;;;4.53;;
2061;SDS011;11070;51.336;12.340;2023-07-24T06:34:06;5.10;;;4.67;;
2061;SDS011;11070;51.336;12.340;2023-07-24T06:36:32;5.00;;;4.50;;
2061;SDS011;11070;51.336;12.340;2023-07-24T06:38:58;5.10;;;4.60;;
2061;SDS011;11070;51.336;12.340;2023-07-24T06:41:23;5.17;;;4.77;;
2061;SDS011;11070;51.336;12.340;2023-07-24T06:43:50;5.20;;;4.73;;
2061;SDS011;11070;51.336;12.340;2023-07-24T06:46:16;4.80;;;4.30;;
2061;SDS011;11070;51.336;12.340;2023-07-24T06:48:41;7.30;;;4.60;;
2061;SDS011;11070;51.336;12.340;2023-07-24T06:51:07;4.37;;;4.07;;
2061;SDS011;11070;51.336;12.340;2023-07-24T06:53:33;4.83;;;4.40;;
2061;SDS011;11070;51.336;12.340;2023-07-24T06:55:58;4.73;;;4.20;;
2061;SDS011;11070;51.336;12.340;2023-07-24T06:58:24;6.40;;;4.40;;
2061;SDS011;11070;51.336;12.340;2023-07-24T07:00:49;4.53;;;4.20;;
2061;SDS011;11070;51.336;12.340;2023-07-24T07:03:15;7.30;;;4.73;;
2061;SDS011;11070;51.336;12.340;2023-07-24T07:05:41;4.50;;;4.20;;
2061;SDS011;11070;51.336;12.340;2023-07-24T07:08:06;4.83;;;4.43;;
2061;SDS011;11070;51.336;12.340;2023-07-24T07:10:32;4.30;;;3.90;;
2061;SDS011;11070;51.336;12.340;2023-07-24T07:12:58;5.90;;;4.53;;
2061;SDS011;11070;51.336;12.340;2023-07-24T07:15:23;4.87;;;4.47;;
2061;SDS011;11070;51.336;12.340;2023-07-24T07:17:49;4.90;;;4.50;;
2061;SDS011;11070;51.336;12.340;2023-07-24T07:20:14;5.33;;;4.83;;
2061;SDS011;11070;51.336;12.340;2023-07-24T07:22:40;4.97;;;4.47;;
2061;SDS011;11070;51.336;12.340;2023-07-24T07:25:06;4.60;;;4.20;;
2061;SDS011;11070;51.336;12.340;2023-07-24T07:27:32;6.00;;;4.70;;
2061;SDS011;11070;51.336;12.340;2023-07-24T07:29:57;4.50;;;4.10;;
2061;SDS011;11070;51.336;12.340;2023-07-24T07:32:23;4.57;;;4.17;;
2061;SDS011;11070;51.336;12.340;2023-07-24T07:34:49;4.90;;;4.50;;
2061;SDS011;11070;51.336;12.340;2023-07-24T07:37:15;5.20;;;4.70;;
2061;SDS011;11070;51.336;12.340;2023-07-24T07:39:41;9.83;;;5.20;;
2061;SDS011;11070;51.336;12.340;2023-07-24T07:42:07;5.40;;;4.90;;
2061;SDS011;11070;51.336;12.340;2023-07-24T07:44:32;5.63;;;5.13;;
2061;SDS011;11070;51.336;12.340;2023-07-24T07:46:58;4.47;;;4.07;;
2061;SDS011;11070;51.336;12.340;2023-07-24T07:49:24;4.73;;;4.33;;
2061;SDS011;11070;51.336;12.340;2023-07-24T07:51:49;5.60;;;5.00;;
2061;SDS011;11070;51.336;12.340;2023-07-24T07:54:15;5.70;;;4.83;;
2061;SDS011;11070;51.336;12.340;2023-07-24T07:56:41;5.70;;;4.43;;
2061;SDS011;11070;51.336;12.340;2023-07-24T07:59:07;5.20;;;4.70;;
2061;SDS011;11070;51.336;12.340;2023-07-24T08:01:32;5.63;;;5.13;;
2061;SDS011;11070;51.336;12.340;2023-07-24T08:03:58;5.20;;;4.70;;
2061;SDS011;11070;51.336;12.340;2023-07-24T08:06:24;4.70;;;4.30;;
2061;SDS011;11070;51.336;12.340;2023-07-24T08:08:49;5.87;;;4.63;;
2061;SDS011;11070;51.336;12.340;2023-07-24T08:11:15;5.00;;;4.50;;
2061;SDS011;11070;51.336;12.340;2023-07-24T08:13:41;4.83;;;4.43;;
2061;SDS011;11070;51.336;12.340;2023-07-24T08:16:13;5.95;;;4.80;;
2061;SDS011;11070;51.336;12.340;2023-07-24T08:18:46;4.60;;;4.23;;
2061;SDS011;11070;51.336;12.340;2023-07-24T08:21:13;5.03;;;4.53;;
2061;SDS011;11070;51.336;12.340;2023-07-24T08:23:39;5.07;;;4.67;;
2061;SDS011;11070;51.336;12.340;2023-07-24T08:26:06;4.47;;;4.07;;
2061;SDS011;11070;51.336;12.340;2023-07-24T08:28:32;4.97;;;4.60;;
2061;SDS011;11070;51.336;12.340;2023-07-24T08:31:00;5.90;;;5.07;;
2061;SDS011;11070;51.336;12.340;2023-07-24T08:33:27;5.07;;;4.67;;
2061;SDS011;11070;51.336;12.340;2023-07-24T08:35:59;4.87;;;4.40;;
2061;SDS011;11070;51.336;12.340;2023-07-24T08:38:27;5.07;;;4.50;;
2061;SDS011;11070;51.336;12.340;2023-07-24T08:41:11;7.63;;;4.30;;
2061;SDS011;11070;51.336;12.340;2023-07-24T08:43:38;4.90;;;4.47;;
2061;SDS011;11070;51.336;12.340;2023-07-24T08:46:06;5.90;;;4.40;;
2061;SDS011;11070;51.336;12.340;2023-07-24T08:48:34;5.10;;;4.57;;
2061;SDS011;11070;51.336;12.340;2023-07-24T08:53:38;5.07;;;4.67;;
2061;SDS011;11070;51.336;12.340;2023-07-24T08:56:09;4.87;;;4.47;;
2061;SDS011;11070;51.336;12.340;2023-07-24T08:58:37;5.13;;;4.73;;
2061;SDS011;11070;51.336;12.340;2023-07-24T09:01:04;4.67;;;4.27;;
2061;SDS011;11070;51.336;12.340;2023-07-24T09:03:30;5.33;;;4.83;;
2061;SDS011;11070;51.336;12.340;2023-07-24T09:06:00;4.50;;;4.10;;
2061;SDS011;11070;51.336;12.340;2023-07-24T09:08:32;4.40;;;4.00;;
2061;SDS011;11070;51.336;12.340;2023-07-24T09:10:59;4.57;;;4.17;;
2061;SDS011;11070;51.336;12.340;2023-07-24T09:13:26;4.20;;;3.90;;
2061;SDS011;11070;51.336;12.340;2023-07-24T09:15:51;5.03;;;4.40;;
2061;SDS011;11070;51.336;12.340;2023-07-24T09:18:17;4.50;;;4.10;;
2061;SDS011;11070;51.336;12.340;2023-07-24T09:20:44;5.27;;;4.73;;
2061;SDS011;11070;51.336;12.340;2023-07-24T09:23:11;5.37;;;4.87;;
2061;SDS011;11070;51.336;12.340;2023-07-24T09:25:38;5.07;;;4.67;;
2061;SDS011;11070;51.336;12.340;2023-07-24T09:28:23;5.07;;;4.20;;
2061;SDS011;11070;51.336;12.340;2023-07-24T09:30:53;5.00;;;4.60;;
2061;SDS011;11070;51.336;12.340;2023-07-24T09:33:22;5.53;;;4.70;;
2061;SDS011;11070;51.336;12.340;2023-07-24T09:36:07;6.63;;;5.07;;
2061;SDS011;11070;51.336;12.340;2023-07-24T09:38:34;5.13;;;4.60;;
2061;SDS011;11070;51.336;12.340;2023-07-24T09:41:01;5.10;;;4.70;;
2061;SDS011;11070;51.336;12.340;2023-07-24T09:43:28;5.03;;;4.53;;
2061;SDS011;11070;51.336;12.340;2023-07-24T09:45:54;8.93;;;5.03;;
2061;SDS011;11070;51.336;12.340;2023-07-24T09:48:22;7.20;;;5.97;;
2061;SDS011;11070;51.336;12.340;2023-07-24T09:50:55;6.47;;;5.53;;
2061;SDS011;11070;51.336;12.340;2023-07-24T09:56:17;6.13;;;5.63;;
2061;SDS011;11070;51.336;12.340;2023-07-24T09:58:43;6.07;;;5.57;;
2061;SDS011;11070;51.336;12.340;2023-07-24T10:01:10;5.77;;;5.27;;
2061;SDS011;11070;51.336;12.340;2023-07-24T10:03:38;7.60;;;5.73;;
2061;SDS011;11070;51.336;12.340;2023-07-24T10:06:05;6.20;;;5.60;;
2061;SDS011;11070;51.336;12.340;2023-07-24T10:08:35;7.10;;;6.40;;
2061;SDS011;11070;51.336;12.340;2023-07-24T10:11:01;6.20;;;5.60;;
2061;SDS011;11070;51.336;12.340;2023-07-24T10:13:27;6.23;;;5.73;;
2061;SDS011;11070;51.336;12.340;2023-07-24T10:15:54;7.13;;;6.23;;
2061;SDS011;11070;51.336;12.340;2023-07-24T10:18:25;6.53;;;5.93;;
2061;SDS011;11070;51.336;12.340;2023-07-24T10:20:59;6.80;;;6.13;;
2061;SDS011;11070;51.336;12.340;2023-07-24T10:23:29;6.40;;;5.70;;
2061;SDS011;11070;51.336;12.340;2023-07-24T10:25:56;10.80;;;6.60;;
2061;SDS011;11070;51.336;12.340;2023-07-24T10:28:35;6.87;;;6.27;;
2061;SDS011;11070;51.336;12.340;2023-07-24T10:31:06;6.90;;;6.23;;
2061;SDS011;11070;51.336;12.340;2023-07-24T10:33:48;7.17;;;6.57;;
2061;SDS011;11070;51.336;12.340;2023-07-24T10:36:18;6.80;;;6.10;;
2061;SDS011;11070;51.336;12.340;2023-07-24T10:38:51;6.20;;;5.67;;
2061;SDS011;11070;51.336;12.340;2023-07-24T10:41:18;6.90;;;6.40;;
2061;SDS011;11070;51.336;12.340;2023-07-24T10:43:48;7.80;;;7.00;;
2061;SDS011;11070;51.336;12.340;2023-07-24T10:46:18;10.93;;;6.13;;
2061;SDS011;11070;51.336;12.340;2023-07-24T10:48:47;7.60;;;6.17;;
2061;SDS011;11070;51.336;12.340;2023-07-24T10:51:14;8.30;;;6.30;;
2061;SDS011;11070;51.336;12.340;2023-07-24T10:53:58;7.43;;;6.33;;
2061;SDS011;11070;51.336;12.340;2023-07-24T10:56:23;6.43;;;5.93;;
2061;SDS011;11070;51.336;12.340;2023-07-24T10:58:49;8.73;;;6.30;;
2061;SDS011;11070;51.336;12.340;2023-07-24T11:01:15;10.60;;;7.10;;
2061;SDS011;11070;51.336;12.340;2023-07-24T11:03:43;7.23;;;6.63;;
2061;SDS011;11070;51.336;12.340;2023-07-24T11:06:13;8.77;;;6.57;;
2061;SDS011;11070;51.336;12.340;2023-07-24T11:08:41;6.87;;;6.13;;
2061;SDS011;11070;51.336;12.340;2023-07-24T11:11:07;7.53;;;6.93;;
2061;SDS011;11070;51.336;12.340;2023-07-24T11:13:33;7.43;;;6.50;;
2061;SDS011;11070;51.336;12.340;2023-07-24T11:16:06;7.33;;;6.63;;
2061;SDS011;11070;51.336;12.340;2023-07-24T11:18:32;7.90;;;7.20;;
2061;SDS011;11070;51.336;12.340;2023-07-24T11:21:08;6.80;;;6.20;;
2061;SDS011;11070;51.336;12.340;2023-07-24T11:23:34;11.10;;;6.73;;
2061;SDS011;11070;51.336;12.340;2023-07-24T11:26:01;11.33;;;7.20;;
2061;SDS011;11070;51.336;12.340;2023-07-24T11:28:38;13.17;;;7.83;;
2061;SDS011;11070;51.336;12.340;2023-07-24T11:31:05;10.80;;;6.97;;
2061;SDS011;11070;51.336;12.340;2023-07-24T11:33:30;8.33;;;7.17;;
2061;SDS011;11070;51.336;12.340;2023-07-24T11:35:56;7.50;;;6.80;;
2061;SDS011;11070;51.336;12.340;2023-07-24T11:38:23;8.13;;;7.03;;
2061;SDS011;11070;51.336;12.340;2023-07-24T11:40:48;7.90;;;7.17;;
2061;SDS011;11070;51.336;12.340;2023-07-24T11:43:18;7.50;;;6.90;;
2061;SDS011;11070;51.336;12.340;2023-07-24T11:45:46;9.03;;;7.20;;
2061;SDS011;11070;51.336;12.340;2023-07-24T11:48:19;9.23;;;7.73;;
2061;SDS011;11070;51.336;12.340;2023-07-24T11:50:47;7.47;;;6.77;;
2061;SDS011;11070;51.336;12.340;2023-07-24T11:55:54;8.23;;;7.43;;
2061;SDS011;11070;51.336;12.340;2023-07-24T11:58:21;8.77;;;7.27;;
2061;SDS011;11070;51.336;12.340;2023-07-24T12:00:48;7.53;;;6.83;;
2061;SDS011;11070;51.336;12.340;2023-07-24T12:03:18;8.03;;;7.20;;
2061;SDS011;11070;51.336;12.340;2023-07-24T12:05:45;9.27;;;6.73;;
2061;SDS011;11070;51.336;12.340;2023-07-24T12:08:11;7.90;;;7.20;;
2061;SDS011;11070;51.336;12.340;2023-07-24T12:10:39;9.40;;;7.80;;
2061;SDS011;11070;51.336;12.340;2023-07-24T12:13:05;9.43;;;7.40;;
2061;SDS011;11070;51.336;12.340;2023-07-24T12:15:32;8.57;;;7.03;;
2061;SDS011;11070;51.336;12.340;2023-07-24T12:18:00;8.73;;;7.80;;
2061;SDS011;11070;51.336;12.340;2023-07-24T12:20:26;8.23;;;6.70;;
2061;SDS011;11070;51.336;12.340;2023-07-24T12:22:53;8.67;;;7.17;;
2061;SDS011;11070;51.336;12.340;2023-07-24T12:25:19;8.97;;;7.77;;
2061;SDS011;11070;51.336;12.340;2023-07-24T12:27:45;7.70;;;7.00;;
2061;SDS011;11070;51.336;12.340;2023-07-24T12:30:11;8.10;;;6.93;;
2061;SDS011;11070;51.336;12.340;2023-07-24T12:32:37;7.87;;;7.17;;
2061;SDS011;11070;51.336;12.340;2023-07-24T12:35:03;7.97;;;7.00;;
2061;SDS011;11070;51.336;12.340;2023-07-24T12:37:30;9.70;;;7.30;;
2061;SDS011;11070;51.336;12.340;2023-07-24T12:39:56;7.83;;;7.03;;
2061;SDS011;11070;51.336;12.340;2023-07-24T12:42:21;9.20;;;7.50;;
2061;SDS011;11070;51.336;12.340;2023-07-24T12:44:48;7.87;;;7.03;;
2061;SDS011;11070;51.336;12.340;2023-07-24T12:47:14;7.70;;;6.90;;
2061;SDS011;11070;51.336;12.340;2023-07-24T12:49:40;9.13;;;7.00;;
2061;SDS011;11070;51.336;12.340;2023-07-24T12:52:06;8.67;;;7.00;;
2061;SDS011;11070;51.336;12.340;2023-07-24T12:54:32;7.87;;;7.17;;
2061;SDS011;11070;51.336;12.340;2023-07-24T12:56:58;8.23;;;7.07;;
2061;SDS011;11070;51.336;12.340;2023-07-24T12:59:24;8.77;;;7.67;;
2061;SDS011;11070;51.336;12.340;2023-07-24T13:01:50;8.37;;;7.00;;
2061;SDS011;11070;51.336;12.340;2023-07-24T13:04:16;8.10;;;7.30;;
2061;SDS011;11070;51.336;12.340;2023-07-24T13:06:41;10.27;;;7.90;;
2061;SDS011;11070;51.336;12.340;2023-07-24T13:09:07;9.83;;;7.90;;
2061;SDS011;11070;51.336;12.340;2023-07-24T13:11:33;9.80;;;7.80;;
2061;SDS011;11070;51.336;12.340;2023-07-24T13:13:59;11.30;;;7.70;;
2061;SDS011;11070;51.336;12.340;2023-07-24T13:16:24;8.13;;;7.00;;
2061;SDS011;11070;51.336;12.340;2023-07-24T13:18:50;8.37;;;7.57;;
2061;SDS011;11070;51.336;12.340;2023-07-24T13:21:16;8.63;;;7.83;;
2061;SDS011;11070;51.336;12.340;2023-07-24T13:23:41;8.00;;;7.20;;
2061;SDS011;11070;51.336;12.340;2023-07-24T13:26:07;8.13;;;7.43;;
2061;SDS011;11070;51.336;12.340;2023-07-24T13:28:35;9.07;;;7.83;;
2061;SDS011;11070;51.336;12.340;2023-07-24T13:31:10;8.87;;;7.97;;
2061;SDS011;11070;51.336;12.340;2023-07-24T13:33:37;8.60;;;7.80;;
2061;SDS011;11070;51.336;12.340;2023-07-24T13:36:03;8.53;;;7.43;;
2061;SDS011;11070;51.336;12.340;2023-07-24T13:38:29;9.50;;;7.90;;
2061;SDS011;11070;51.336;12.340;2023-07-24T13:40:54;9.80;;;8.80;;
2061;SDS011;11070;51.336;12.340;2023-07-24T13:43:20;8.67;;;7.73;;
2061;SDS011;11070;51.336;12.340;2023-07-24T13:45:46;9.80;;;8.80;;
2061;SDS011;11070;51.336;12.340;2023-07-24T13:48:11;8.30;;;7.50;;
2061;SDS011;11070;51.336;12.340;2023-07-24T13:50:37;9.63;;;8.17;;
2061;SDS011;11070;51.336;12.340;2023-07-24T13:53:02;8.83;;;7.93;;
2061;SDS011;11070;51.336;12.340;2023-07-24T13:55:28;8.43;;;7.60;;
2061;SDS011;11070;51.336;12.340;2023-07-24T13:57:54;8.37;;;7.53;;
2061;SDS011;11070;51.336;12.340;2023-07-24T14:00:19;10.00;;;7.47;;
2061;SDS011;11070;51.336;12.340;2023-07-24T14:02:45;9.23;;;7.07;;
2061;SDS011;11070;51.336;12.340;2023-07-24T14:05:11;8.03;;;7.20;;
2061;SDS011;11070;51.336;12.340;2023-07-24T14:07:36;8.67;;;7.87;;
2061;SDS011;11070;51.336;12.340;2023-07-24T14:10:02;8.37;;;7.67;;
2061;SDS011;11070;51.336;12.340;2023-07-24T14:12:28;9.07;;;8.27;;
2061;SDS011;11070;51.336;12.340;2023-07-24T14:14:54;9.10;;;8.20;;
2061;SDS011;11070;51.336;12.340;2023-07-24T14:17:19;7.83;;;7.13;;
2061;SDS011;11070;51.336;12.340;2023-07-24T14:19:45;7.80;;;6.93;;
2061;SDS011;11070;51.336;12.340;2023-07-24T14:22:11;8.60;;;7.70;;
2061;SDS011;11070;51.336;12.340;2023-07-24T14:24:36;8.20;;;7.30;;
2061;SDS011;11070;51.336;12.340;2023-07-24T14:27:02;9.83;;;7.33;;
2061;SDS011;11070;51.336;12.340;2023-07-24T14:29:28;12.03;;;8.17;;
2061;SDS011;11070;51.336;12.340;2023-07-24T14:31:53;8.37;;;7.57;;
2061;SDS011;11070;51.336;12.340;2023-07-24T14:34:19;8.67;;;7.77;;
2061;SDS011;11070;51.336;12.340;2023-07-24T14:36:44;7.90;;;7.20;;
2061;SDS011;11070;51.336;12.340;2023-07-24T14:39:10;11.33;;;7.87;;
2061;SDS011;11070;51.336;12.340;2023-07-24T14:41:36;9.77;;;7.60;;
2061;SDS011;11070;51.336;12.340;2023-07-24T14:44:01;15.70;;;8.07;;
2061;SDS011;11070;51.336;12.340;2023-07-24T14:46:27;7.80;;;7.10;;
2061;SDS011;11070;51.336;12.340;2023-07-24T14:48:53;8.00;;;7.20;;
2061;SDS011;11070;51.336;12.340;2023-07-24T14:51:18;8.97;;;7.27;;
2061;SDS011;11070;51.336;12.340;2023-07-24T14:53:44;16.00;;;7.20;;
2061;SDS011;11070;51.336;12.340;2023-07-24T14:56:10;8.53;;;7.53;;
2061;SDS011;11070;51.336;12.340;2023-07-24T14:58:35;7.87;;;7.07;;
2061;SDS011;11070;51.336;12.340;2023-07-24T15:01:01;8.97;;;7.00;;